Time;durP1;ratioP1;P1;durP2;ratioP2;P2;SDS_P1;SDS_P2;PMS_P1;PMS_P2;Temp;Humidity;BMP_temperature;BMP_pressure;BME280_temperature;BME280_humidity;BME280_pressure;Samples;Min_cycle;Max_cycle;Signal;HPM_P1;HPM_P2
2024/01/29 00:00:10;;;;;;;17.93;10.57;;;6.50;48.70;;;;;;4982506;28;20236;-77
2024/01/29 00:02:38;;;;;;;20.20;11.63;;;6.40;49.40;;;;;;4979937;28;20254;-78
2024/01/29 00:05:07;;;;;;;18.17;11.07;;;6.40;49.00;;;;;;4971180;28;20238;-78
2024/01/29 00:07:36;;;;;;;18.10;11.03;;;6.40;49.90;;;;;;4962214;28;20249;-77
2024/01/29 00:10:06;;;;;;;17.57;11.63;;;6.30;50.10;;;;;;4976034;28;20257;-77
2024/01/29 00:12:36;;;;;;;18.47;11.37;;;6.20;50.30;;;;;;4979014;28;20230;-78
2024/01/29 00:15:06;;;;;;;17.17;11.43;;;6.20;51.80;;;;;;4965940;28;20370;-79
2024/01/29 00:17:34;;;;;;;19.63;11.60;;;6.30;50.70;;;;;;4980328;28;20261;-79
2024/01/29 00:20:04;;;;;;;19.67;11.87;;;6.30;50.50;;;;;;4955244;28;20311;-79
2024/01/29 00:22:32;;;;;;;20.33;11.80;;;6.40;51.00;;;;;;4999139;28;20292;-79
2024/01/29 00:25:01;;;;;;;19.43;12.07;;;6.40;50.90;;;;;;4983537;28;20241;-79
2024/01/29 00:27:29;;;;;;;19.37;11.77;;;6.40;50.00;;;;;;4980464;28;20321;-79
2024/01/29 00:30:01;;;;;;;21.40;12.27;;;6.50;49.80;;;;;;4974448;28;20227;-79
2024/01/29 00:32:29;;;;;;;18.97;12.47;;;6.40;49.90;;;;;;4978415;28;20320;-79
2024/01/29 00:34:58;;;;;;;20.90;12.80;;;6.40;50.70;;;;;;4995329;28;20234;-78
2024/01/29 00:37:27;;;;;;;18.00;11.90;;;6.30;51.40;;;;;;4947033;28;20662;-78
2024/01/29 00:39:56;;;;;;;19.20;12.37;;;6.30;51.20;;;;;;4979127;28;20249;-78
2024/01/29 00:42:25;;;;;;;20.07;12.47;;;6.30;51.10;;;;;;4979805;28;20246;-78
2024/01/29 00:44:55;;;;;;;20.40;12.83;;;6.30;51.40;;;;;;4978789;28;20222;-79
2024/01/29 00:47:26;;;;;;;20.53;12.50;;;6.20;51.30;;;;;;4962549;28;20250;-79
2024/01/29 00:49:55;;;;;;;19.13;12.43;;;6.20;51.00;;;;;;4974476;28;20228;-79
2024/01/29 00:52:23;;;;;;;20.37;12.67;;;6.30;51.20;;;;;;4960588;28;20239;-79
2024/01/29 00:54:52;;;;;;;20.37;13.33;;;6.20;51.10;;;;;;4971545;28;20936;-79
2024/01/29 00:57:22;;;;;;;21.13;13.83;;;6.20;51.60;;;;;;4976847;28;20223;-80
2024/01/29 00:59:51;;;;;;;18.83;12.73;;;6.30;51.40;;;;;;4979133;28;20226;-78
2024/01/29 01:02:19;;;;;;;21.90;13.53;;;6.30;51.80;;;;;;4978427;28;20729;-79
2024/01/29 01:04:50;;;;;;;19.10;12.90;;;6.20;51.60;;;;;;4965159;28;20340;-78
2024/01/29 01:07:19;;;;;;;18.30;12.80;;;6.20;51.70;;;;;;4979247;28;20235;-79
2024/01/29 01:09:48;;;;;;;19.10;12.97;;;6.20;51.80;;;;;;4956771;28;20223;-78
2024/01/29 01:12:16;;;;;;;21.03;13.23;;;6.20;51.30;;;;;;4978391;28;20324;-79
2024/01/29 01:14:45;;;;;;;19.57;13.10;;;6.20;51.60;;;;;;4967268;28;20222;-79
2024/01/29 01:17:14;;;;;;;20.43;12.97;;;6.10;52.10;;;;;;4994899;28;20887;-79
2024/01/29 01:19:42;;;;;;;19.83;12.47;;;6.00;51.80;;;;;;4980770;28;20349;-78
2024/01/29 01:22:14;;;;;;;19.60;12.57;;;6.10;51.50;;;;;;4992461;28;20300;-78
2024/01/29 01:24:44;;;;;;;21.60;13.17;;;6.00;51.90;;;;;;4975469;28;20234;-78
2024/01/29 01:27:16;;;;;;;20.93;13.93;;;6.00;52.20;;;;;;4961973;28;20239;-79
2024/01/29 01:29:45;;;;;;;18.93;12.77;;;5.90;53.00;;;;;;4972466;28;20224;-79
2024/01/29 01:32:14;;;;;;;18.67;12.83;;;6.00;52.60;;;;;;4972154;28;20232;-78
2024/01/29 01:34:43;;;;;;;21.30;12.83;;;6.00;52.50;;;;;;4977947;28;20258;-79
2024/01/29 01:37:14;;;;;;;20.80;13.50;;;5.90;52.40;;;;;;4964086;28;20230;-79
2024/01/29 01:39:43;;;;;;;19.37;12.67;;;5.90;53.00;;;;;;4972839;28;20305;-78
2024/01/29 01:42:15;;;;;;;22.10;13.37;;;6.00;53.40;;;;;;4962895;28;20232;-79
2024/01/29 01:44:44;;;;;;;18.63;13.23;;;5.90;53.20;;;;;;4975540;28;20227;-79
2024/01/29 01:47:13;;;;;;;20.00;13.20;;;5.80;53.50;;;;;;4952282;28;20220;-79
2024/01/29 01:49:42;;;;;;;20.83;13.50;;;5.80;53.30;;;;;;4980248;28;20226;-80
2024/01/29 01:52:11;;;;;;;20.63;13.43;;;5.80;53.30;;;;;;4964163;28;20316;-79
2024/01/29 01:54:41;;;;;;;19.90;12.93;;;5.80;53.60;;;;;;4980584;28;20223;-79
2024/01/29 01:57:10;;;;;;;19.60;13.57;;;5.80;54.30;;;;;;4985268;28;21189;-78
2024/01/29 01:59:40;;;;;;;19.73;13.50;;;5.80;53.20;;;;;;4980763;28;20228;-78
2024/01/29 02:02:09;;;;;;;18.80;13.03;;;5.80;53.10;;;;;;4971793;28;20223;-79
2024/01/29 02:04:37;;;;;;;20.43;12.80;;;5.80;52.80;;;;;;4975989;28;20227;-78
2024/01/29 02:07:07;;;;;;;19.67;12.87;;;5.80;53.30;;;;;;4977975;28;20222;-80
2024/01/29 02:09:36;;;;;;;20.10;12.63;;;5.70;53.80;;;;;;4964826;28;20271;-79
2024/01/29 02:12:06;;;;;;;15.57;11.77;;;5.70;53.90;;;;;;4963892;28;20252;-78
2024/01/29 02:14:35;;;;;;;18.83;12.00;;;5.80;55.10;;;;;;4939533;28;20307;-78
2024/01/29 02:17:04;;;;;;;16.73;12.20;;;5.70;53.70;;;;;;4974822;28;20243;-78
2024/01/29 02:19:33;;;;;;;16.43;11.90;;;5.70;54.10;;;;;;4959253;28;20290;-78
2024/01/29 02:22:02;;;;;;;17.10;11.33;;;5.80;53.80;;;;;;4976072;28;20270;-78
2024/01/29 02:24:32;;;;;;;19.17;11.63;;;5.80;53.20;;;;;;4976783;28;20314;-78
2024/01/29 02:27:01;;;;;;;20.03;11.90;;;5.80;53.50;;;;;;4962573;28;20306;-78
2024/01/29 02:29:29;;;;;;;19.17;12.47;;;5.80;53.40;;;;;;4974989;28;20219;-78
2024/01/29 02:31:58;;;;;;;16.87;11.97;;;5.90;53.80;;;;;;4978823;28;20238;-77
2024/01/29 02:34:26;;;;;;;18.00;12.30;;;5.80;53.90;;;;;;4962705;28;20229;-78
2024/01/29 02:36:55;;;;;;;23.07;13.00;;;5.80;53.40;;;;;;4965774;28;20321;-78
2024/01/29 02:39:24;;;;;;;22.27;12.63;;;5.80;53.80;;;;;;4976002;28;20245;-78
2024/01/29 02:41:54;;;;;;;17.87;11.93;;;5.80;54.30;;;;;;4954902;28;20313;-79
2024/01/29 02:44:23;;;;;;;17.73;11.33;;;5.90;54.90;;;;;;4965334;28;20239;-78
2024/01/29 02:46:51;;;;;;;18.90;11.97;;;5.90;53.40;;;;;;4972872;28;20227;-78
2024/01/29 02:49:20;;;;;;;20.73;11.70;;;5.90;54.20;;;;;;4974906;28;20716;-78
2024/01/29 02:51:49;;;;;;;18.97;11.53;;;5.90;53.60;;;;;;4975282;28;20289;-78
2024/01/29 02:54:18;;;;;;;17.97;12.20;;;5.80;54.20;;;;;;4974252;28;20230;-78
2024/01/29 02:56:47;;;;;;;15.33;11.40;;;5.90;53.80;;;;;;4978491;28;20310;-78
2024/01/29 02:59:17;;;;;;;17.53;12.00;;;5.90;54.10;;;;;;4971845;28;20778;-79
2024/01/29 03:01:46;;;;;;;16.70;11.60;;;6.00;53.70;;;;;;4962108;28;20293;-78
2024/01/29 03:04:15;;;;;;;19.37;12.07;;;6.00;53.20;;;;;;4987278;28;20273;-78
2024/01/29 03:06:43;;;;;;;18.90;12.73;;;6.00;54.20;;;;;;4994061;28;20227;-79
2024/01/29 03:09:12;;;;;;;19.00;12.57;;;6.00;54.00;;;;;;4976515;28;20238;-78
2024/01/29 03:11:40;;;;;;;19.67;12.07;;;5.90;54.10;;;;;;4972441;28;20322;-77
2024/01/29 03:14:09;;;;;;;17.80;12.63;;;6.00;54.00;;;;;;4975788;28;20256;-77
2024/01/29 03:16:40;;;;;;;17.10;11.73;;;5.90;53.50;;;;;;4981653;28;20235;-79
2024/01/29 03:19:08;;;;;;;21.10;12.30;;;5.90;53.60;;;;;;4959872;28;20251;-73
2024/01/29 03:21:37;;;;;;;17.13;11.70;;;5.90;54.00;;;;;;4973193;28;20269;-74
2024/01/29 03:24:06;;;;;;;17.00;11.83;;;6.00;54.00;;;;;;4957616;28;20265;-74
2024/01/29 03:26:35;;;;;;;16.90;11.87;;;5.90;53.60;;;;;;4984881;28;20255;-74
2024/01/29 03:29:04;;;;;;;18.27;12.30;;;5.80;54.80;;;;;;4998104;28;20222;-74
2024/01/29 03:31:32;;;;;;;16.90;11.63;;;5.80;54.80;;;;;;4978526;28;20778;-75
2024/01/29 03:34:02;;;;;;;19.33;11.63;;;5.80;54.60;;;;;;4976100;28;20265;-75
2024/01/29 03:36:32;;;;;;;16.70;11.53;;;5.70;54.90;;;;;;4945490;28;20314;-74
2024/01/29 03:39:00;;;;;;;18.63;12.57;;;5.70;55.50;;;;;;4979677;28;20219;-74
2024/01/29 03:41:29;;;;;;;20.53;12.50;;;5.70;55.40;;;;;;4982204;28;20239;-74
2024/01/29 03:44:00;;;;;;;20.07;12.40;;;5.60;55.60;;;;;;4978052;28;20231;-73
2024/01/29 03:46:29;;;;;;;19.60;12.63;;;5.70;55.20;;;;;;4961241;28;20253;-74
2024/01/29 03:48:58;;;;;;;18.13;12.20;;;5.60;55.30;;;;;;4978954;28;20226;-75
2024/01/29 03:51:28;;;;;;;18.90;12.23;;;5.60;55.20;;;;;;4973014;28;21722;-74
2024/01/29 03:53:57;;;;;;;17.43;11.47;;;5.60;66.80;;;;;;4972443;28;20436;-75
2024/01/29 03:56:26;;;;;;;18.10;11.57;;;5.50;56.30;;;;;;4986932;28;20223;-74
2024/01/29 03:58:55;;;;;;;19.33;11.87;;;5.50;55.70;;;;;;4962668;28;20215;-75
2024/01/29 04:01:27;;;;;;;18.63;12.17;;;5.50;55.50;;;;;;4978890;28;20236;-73
2024/01/29 04:03:56;;;;;;;17.13;12.37;;;5.50;57.10;;;;;;4953867;28;20306;-74
2024/01/29 04:06:25;;;;;;;17.70;12.00;;;5.40;56.10;;;;;;4983321;28;20255;-74
2024/01/29 04:08:55;;;;;;;21.17;11.67;;;5.40;55.80;;;;;;4964729;28;20336;-73
2024/01/29 04:11:24;;;;;;;19.20;12.33;;;5.50;56.20;;;;;;4976707;28;20230;-73
2024/01/29 04:13:53;;;;;;;17.40;12.23;;;5.40;55.70;;;;;;4972393;28;20266;-74
2024/01/29 04:16:22;;;;;;;17.43;12.00;;;5.40;56.10;;;;;;4977205;28;20662;-74
2024/01/29 04:18:51;;;;;;;20.77;12.17;;;5.40;56.10;;;;;;4972323;28;20237;-74
2024/01/29 04:21:20;;;;;;;17.27;12.00;;;5.40;56.40;;;;;;4983213;28;20231;-74
2024/01/29 04:23:48;;;;;;;20.43;12.07;;;5.40;55.70;;;;;;4977443;28;20227;-74
2024/01/29 04:26:18;;;;;;;17.53;11.13;;;5.50;55.90;;;;;;4975389;28;20241;-73
2024/01/29 04:28:47;;;;;;;18.87;11.60;;;5.40;55.80;;;;;;4962075;28;20318;-75
2024/01/29 04:31:16;;;;;;;17.87;12.07;;;5.30;56.90;;;;;;4978991;28;20235;-74
2024/01/29 04:33:45;;;;;;;19.27;12.33;;;5.30;56.80;;;;;;4978454;28;20231;-74
2024/01/29 04:36:15;;;;;;;17.60;11.77;;;5.30;56.40;;;;;;4980446;28;20246;-75
2024/01/29 04:38:44;;;;;;;16.07;11.43;;;5.30;56.90;;;;;;4981952;28;20235;-73
2024/01/29 04:41:20;;;;;;;18.17;11.80;;;5.30;56.90;;;;;;4966140;28;21031;-74
2024/01/29 04:43:50;;;;;;;18.90;11.70;;;5.30;56.90;;;;;;4948723;28;20234;-74
2024/01/29 04:46:18;;;;;;;15.20;11.07;;;5.30;56.80;;;;;;4980531;28;20915;-74
2024/01/29 04:48:47;;;;;;;15.87;11.57;;;5.30;57.00;;;;;;4961491;28;20222;-74
2024/01/29 04:51:16;;;;;;;17.20;11.83;;;5.30;57.40;;;;;;4960923;28;20237;-74
2024/01/29 04:53:45;;;;;;;19.20;12.07;;;5.30;56.80;;;;;;4962880;28;20313;-75
2024/01/29 04:56:14;;;;;;;17.50;11.87;;;5.30;57.40;;;;;;4983276;28;20319;-74
2024/01/29 04:58:45;;;;;;;18.37;12.57;;;5.30;56.60;;;;;;4972233;28;20318;-75
2024/01/29 05:01:14;;;;;;;16.57;12.00;;;5.30;57.10;;;;;;4963121;28;20285;-74
2024/01/29 05:03:44;;;;;;;21.80;12.73;;;5.20;57.00;;;;;;4974926;28;20230;-75
2024/01/29 05:06:17;;;;;;;19.90;12.17;;;5.30;56.50;;;;;;4982677;28;20223;-75
2024/01/29 05:08:46;;;;;;;14.73;11.30;;;5.30;56.50;;;;;;4963844;28;20267;-74
2024/01/29 05:11:15;;;;;;;17.27;11.60;;;5.30;57.50;;;;;;4978382;28;20246;-75
2024/01/29 05:13:45;;;;;;;16.37;11.47;;;5.20;57.00;;;;;;4976089;28;20235;-75
2024/01/29 05:16:15;;;;;;;17.93;11.50;;;5.20;57.00;;;;;;4959461;28;20242;-75
2024/01/29 05:19:01;;;;;;;17.47;11.20;;;5.30;57.00;;;;;;5032993;28;21367;-71
2024/01/29 05:21:29;;;;;;;16.57;10.53;;;5.30;56.50;;;;;;5018191;28;20230;-71
2024/01/29 05:23:58;;;;;;;14.97;11.27;;;5.20;57.20;;;;;;5017323;28;20229;-71
2024/01/29 05:26:27;;;;;;;18.10;11.30;;;5.20;57.40;;;;;;5017575;28;20245;-71
2024/01/29 05:28:55;;;;;;;15.30;11.53;;;5.20;57.00;;;;;;5027198;28;20736;-71
2024/01/29 05:31:24;;;;;;;17.60;11.60;;;5.20;57.10;;;;;;5038695;28;20706;-70
2024/01/29 05:33:52;;;;;;;15.07;11.03;;;5.20;57.00;;;;;;5034098;28;20221;-71
2024/01/29 05:36:22;;;;;;;15.83;11.23;;;5.10;57.00;;;;;;5032882;28;20226;-71
2024/01/29 05:38:51;;;;;;;17.83;11.43;;;5.10;57.50;;;;;;5000165;28;20229;-71
2024/01/29 05:41:19;;;;;;;16.77;11.27;;;5.10;57.10;;;;;;5021063;28;20229;-70
2024/01/29 05:43:48;;;;;;;15.33;10.87;;;5.10;57.30;;;;;;5019095;28;20223;-71
2024/01/29 05:46:16;;;;;;;13.47;10.60;;;5.20;57.10;;;;;;5034813;28;20320;-72
2024/01/29 05:48:45;;;;;;;17.17;11.27;;;5.10;70.30;;;;;;5036192;28;20643;-69
2024/01/29 05:51:13;;;;;;;15.57;10.77;;;5.00;57.70;;;;;;5019643;28;20224;-69
2024/01/29 05:53:44;;;;;;;15.87;11.47;;;5.00;57.60;;;;;;5033396;28;20250;-69
2024/01/29 05:56:12;;;;;;;16.73;10.83;;;5.10;57.80;;;;;;5001749;28;20241;-71
2024/01/29 05:58:44;;;;;;;16.57;11.00;;;5.20;57.30;;;;;;5029342;28;20217;-70
2024/01/29 06:01:13;;;;;;;14.53;10.90;;;5.00;57.50;;;;;;5020008;28;20217;-69
2024/01/29 06:03:41;;;;;;;15.77;11.60;;;5.00;57.90;;;;;;5031449;28;20231;-71
2024/01/29 06:06:10;;;;;;;16.90;11.17;;;5.00;57.60;;;;;;5010845;28;20232;-71
2024/01/29 06:08:39;;;;;;;19.83;11.97;;;5.10;58.00;;;;;;5011397;28;20225;-68
2024/01/29 06:11:09;;;;;;;18.33;11.67;;;5.00;58.80;;;;;;5054270;28;20232;-71
2024/01/29 06:13:39;;;;;;;18.73;12.00;;;4.90;58.00;;;;;;5027758;28;20232;-74
2024/01/29 06:16:08;;;;;;;16.97;11.40;;;4.90;58.40;;;;;;5031042;28;20222;-72
2024/01/29 06:18:37;;;;;;;15.17;11.47;;;5.00;57.60;;;;;;5029763;28;20225;-72
2024/01/29 06:21:06;;;;;;;15.83;11.53;;;4.90;57.70;;;;;;5029339;28;20229;-70
2024/01/29 06:23:34;;;;;;;15.97;11.07;;;4.90;58.20;;;;;;5019153;28;20237;-70
2024/01/29 06:26:03;;;;;;;18.03;11.03;;;4.90;58.50;;;;;;5032699;28;20221;-71
2024/01/29 06:28:33;;;;;;;18.00;11.80;;;4.80;58.50;;;;;;5026672;28;20221;-69
2024/01/29 06:31:01;;;;;;;17.70;12.00;;;4.90;58.20;;;;;;4984125;28;20310;-74
2024/01/29 06:33:30;;;;;;;16.57;11.73;;;4.90;58.60;;;;;;5024569;28;20301;-71
2024/01/29 06:35:59;;;;;;;14.73;11.00;;;4.90;58.50;;;;;;5016714;28;20226;-72
2024/01/29 06:38:28;;;;;;;18.37;11.63;;;4.70;71.60;;;;;;5023722;28;20343;-70
2024/01/29 06:40:57;;;;;;;14.47;11.47;;;4.80;58.70;;;;;;5021839;28;20785;-71
2024/01/29 06:43:27;;;;;;;16.20;12.20;;;4.90;58.70;;;;;;5024538;28;20536;-71
2024/01/29 06:46:00;;;;;;;18.53;11.40;;;4.80;58.30;;;;;;5019519;28;20226;-71
2024/01/29 06:48:28;;;;;;;18.03;11.73;;;4.80;58.10;;;;;;5006013;28;20307;-71
2024/01/29 06:50:57;;;;;;;16.37;12.40;;;4.90;58.50;;;;;;5018036;28;20662;-71
2024/01/29 06:53:26;;;;;;;19.83;12.00;;;4.80;58.30;;;;;;5022198;28;20229;-72
2024/01/29 06:55:55;;;;;;;19.10;12.23;;;4.80;59.10;;;;;;5012251;28;20553;-72
2024/01/29 06:58:23;;;;;;;17.83;12.70;;;4.80;58.30;;;;;;4995282;28;20233;-72
2024/01/29 07:00:52;;;;;;;18.13;12.97;;;4.90;58.90;;;;;;5008746;28;20225;-73
2024/01/29 07:03:22;;;;;;;17.97;12.17;;;4.90;58.70;;;;;;5012264;28;20231;-72
2024/01/29 07:05:50;;;;;;;17.07;12.33;;;5.00;59.20;;;;;;5004406;28;20225;-72
2024/01/29 07:08:19;;;;;;;17.20;12.17;;;4.90;58.30;;;;;;5014087;28;20675;-71
2024/01/29 07:10:47;;;;;;;16.53;11.63;;;4.90;58.90;;;;;;5018498;28;20229;-70
2024/01/29 07:13:16;;;;;;;15.13;9.87;;;4.80;59.40;;;;;;5017266;28;20218;-70
2024/01/29 07:15:45;;;;;;;14.27;9.30;;;4.80;58.60;;;;;;4984226;28;20222;-70
2024/01/29 07:18:14;;;;;;;12.53;8.37;;;4.80;58.60;;;;;;5014122;28;20229;-70
2024/01/29 07:20:45;;;;;;;12.30;8.43;;;4.80;71.10;;;;;;5017238;28;20307;-71
2024/01/29 07:23:14;;;;;;;12.87;9.17;;;4.70;59.80;;;;;;5018568;28;20224;-72
2024/01/29 07:25:42;;;;;;;13.17;8.57;;;4.80;59.40;;;;;;5022821;28;20231;-73
2024/01/29 07:28:11;;;;;;;12.20;8.63;;;4.90;59.40;;;;;;5012727;28;20237;-73
2024/01/29 07:30:39;;;;;;;11.43;7.47;;;4.90;58.60;;;;;;5017284;28;20229;-73
2024/01/29 07:33:08;;;;;;;8.67;7.10;;;4.90;58.30;;;;;;5003213;28;20308;-73
2024/01/29 07:35:36;;;;;;;11.50;8.00;;;4.90;58.60;;;;;;5022125;28;21139;-74
2024/01/29 07:38:06;;;;;;;11.10;7.70;;;4.80;59.10;;;;;;5001400;28;25498;-73
2024/01/29 07:40:35;;;;;;;10.00;6.87;;;5.00;59.10;;;;;;5001216;28;20225;-74
2024/01/29 07:43:04;;;;;;;9.80;7.07;;;4.90;59.60;;;;;;5013640;28;20228;-75
2024/01/29 07:45:32;;;;;;;10.90;7.50;;;5.00;58.60;;;;;;5004500;28;20571;-73
2024/01/29 07:48:04;;;;;;;9.03;6.73;;;4.90;71.90;;;;;;4997822;28;20233;-72
2024/01/29 07:50:33;;;;;;;12.10;6.67;;;4.90;58.70;;;;;;4998328;28;20632;-72
2024/01/29 07:53:02;;;;;;;10.03;7.30;;;4.90;59.50;;;;;;4997612;28;20505;-72
2024/01/29 07:55:32;;;;;;;10.13;6.73;;;5.00;72.70;;;;;;5001834;28;20795;-71
2024/01/29 07:58:01;;;;;;;9.40;6.87;;;4.80;59.70;;;;;;4983003;28;20245;-71
2024/01/29 08:00:29;;;;;;;8.43;6.03;;;4.80;59.70;;;;;;4997144;28;20222;-71
2024/01/29 08:02:58;;;;;;;9.27;6.30;;;4.90;60.00;;;;;;5016585;28;20296;-69
2024/01/29 08:05:26;;;;;;;10.23;6.47;;;4.80;59.70;;;;;;5022234;28;20222;-69
2024/01/29 08:07:55;;;;;;;9.57;6.07;;;4.80;59.80;;;;;;4995629;28;20230;-69
2024/01/29 08:10:24;;;;;;;9.00;6.13;;;4.80;59.40;;;;;;5012110;28;20213;-69
2024/01/29 08:12:54;;;;;;;13.33;6.10;;;4.80;59.80;;;;;;5021322;28;20222;-69
2024/01/29 08:18:12;;;;;;;9.60;6.67;;;4.70;59.80;;;;;;5159616;23;20752;-68
2024/01/29 08:20:41;;;;;;;12.23;6.60;;;4.80;59.90;;;;;;4859331;29;20826;-69
2024/01/29 08:23:10;;;;;;;10.20;6.73;;;4.80;59.40;;;;;;4850433;29;20252;-68
2024/01/29 08:25:39;;;;;;;9.53;6.60;;;4.80;59.10;;;;;;4863634;29;20323;-69
2024/01/29 08:28:09;;;;;;;9.63;6.40;;;4.90;59.10;;;;;;4855581;29;20235;-69
2024/01/29 08:30:37;;;;;;;8.17;6.30;;;4.90;59.20;;;;;;4861614;29;20222;-68
2024/01/29 08:33:06;;;;;;;8.07;6.37;;;5.00;58.80;;;;;;4864514;29;20716;-68
2024/01/29 08:35:35;;;;;;;9.23;7.07;;;5.00;58.40;;;;;;4857959;29;20230;-68
2024/01/29 08:38:04;;;;;;;10.03;7.80;;;5.00;59.40;;;;;;4857222;29;20724;-68
2024/01/29 08:40:35;;;;;;;12.40;7.23;;;5.10;59.40;;;;;;4868655;29;20234;-68
2024/01/29 08:43:04;;;;;;;10.07;7.03;;;5.20;58.90;;;;;;4857155;29;20231;-68
2024/01/29 08:45:34;;;;;;;12.20;7.70;;;5.30;57.70;;;;;;4856099;29;20712;-68
2024/01/29 08:48:04;;;;;;;11.90;7.73;;;5.20;58.20;;;;;;4928046;23;20238;-68
2024/01/29 08:50:33;;;;;;;12.00;7.03;;;5.20;58.20;;;;;;4872700;29;21308;-68
2024/01/29 08:53:03;;;;;;;9.93;6.93;;;5.20;58.40;;;;;;4879643;29;20704;-68
2024/01/29 08:55:32;;;;;;;12.33;7.60;;;5.20;58.70;;;;;;4881311;29;20313;-69
2024/01/29 08:58:01;;;;;;;8.73;6.57;;;5.20;71.00;;;;;;4883286;29;20234;-68
2024/01/29 09:00:32;;;;;;;16.90;7.93;;;5.30;58.30;;;;;;4885783;29;20242;-68
2024/01/29 09:03:02;;;;;;;9.63;6.80;;;5.20;58.50;;;;;;4886232;29;20231;-68
2024/01/29 09:05:31;;;;;;;10.37;7.10;;;5.30;58.80;;;;;;4868752;29;20291;-68
2024/01/29 09:08:00;;;;;;;9.93;7.13;;;5.20;58.10;;;;;;4881766;29;20230;-68
2024/01/29 09:10:40;;;;;;;11.43;7.53;;;5.30;58.20;;;;;;4882630;29;20226;-69
2024/01/29 09:13:10;;;;;;;12.77;7.07;;;5.30;57.70;;;;;;4891971;29;20305;-68
2024/01/29 09:15:39;;;;;;;10.10;7.30;;;5.40;57.80;;;;;;4866651;29;20522;-69
2024/01/29 09:18:11;;;;;;;9.30;6.93;;;5.40;58.60;;;;;;4875709;29;20791;-69
2024/01/29 09:20:40;;;;;;;9.27;7.13;;;5.40;58.90;;;;;;4880229;29;20273;-68
2024/01/29 09:23:08;;;;;;;10.87;7.87;;;5.50;57.50;;;;;;4885847;29;20285;-68
2024/01/29 09:25:37;;;;;;;9.53;7.50;;;5.60;57.30;;;;;;4881318;29;20282;-68
2024/01/29 09:28:07;;;;;;;10.27;7.50;;;5.60;57.50;;;;;;4871794;29;20650;-68
2024/01/29 09:30:36;;;;;;;12.00;8.53;;;5.70;57.90;;;;;;4898145;29;20234;-67
2024/01/29 09:33:05;;;;;;;11.53;8.03;;;5.70;57.20;;;;;;4866220;29;20337;-68
2024/01/29 09:35:48;;;;;;;14.23;8.63;;;5.80;58.10;;;;;;4871354;29;21009;-69
2024/01/29 09:38:17;;;;;;;13.53;8.90;;;5.80;57.20;;;;;;4883865;29;20282;-68
2024/01/29 09:40:46;;;;;;;12.67;8.60;;;5.90;57.00;;;;;;4888110;29;20229;-69
2024/01/29 09:43:18;;;;;;;12.63;8.27;;;6.00;56.50;;;;;;4887363;29;20230;-68
2024/01/29 09:45:49;;;;;;;10.17;7.53;;;6.00;56.10;;;;;;4887049;29;20230;-69
2024/01/29 09:48:20;;;;;;;10.87;7.77;;;6.00;55.90;;;;;;4878480;29;20997;-68
2024/01/29 09:50:52;;;;;;;13.60;8.70;;;6.00;56.30;;;;;;4875006;29;20513;-68
2024/01/29 09:53:22;;;;;;;11.53;9.00;;;6.00;68.50;;;;;;4876442;29;20303;-68
2024/01/29 09:55:51;;;;;;;13.17;9.60;;;6.00;68.60;;;;;;4880076;29;20237;-69
2024/01/29 09:58:20;;;;;;;12.60;8.90;;;6.10;56.80;;;;;;4880366;29;20665;-68
2024/01/29 10:00:48;;;;;;;12.77;9.50;;;6.10;56.50;;;;;;4880644;29;20308;-68
2024/01/29 10:03:22;;;;;;;15.00;8.97;;;6.00;56.20;;;;;;4882300;29;20234;-68
2024/01/29 10:05:55;;;;;;;13.03;9.23;;;6.10;57.80;;;;;;4871989;29;20874;-68
2024/01/29 10:08:24;;;;;;;14.00;9.13;;;6.10;56.40;;;;;;4862389;29;20229;-68
2024/01/29 10:10:54;;;;;;;14.70;9.17;;;6.20;56.10;;;;;;4884441;29;21119;-68
2024/01/29 10:13:23;;;;;;;11.93;8.97;;;6.10;56.80;;;;;;4870838;29;20312;-68
2024/01/29 10:15:52;;;;;;;12.73;9.40;;;6.20;56.60;;;;;;4883415;29;20226;-69
2024/01/29 10:18:23;;;;;;;15.13;9.90;;;6.10;57.20;;;;;;4880533;29;20259;-69
2024/01/29 10:21:02;;;;;;;13.60;9.30;;;6.10;57.30;;;;;;4866692;29;20322;-68
2024/01/29 10:23:32;;;;;;;14.80;9.20;;;6.20;56.80;;;;;;4885042;29;20268;-69
2024/01/29 10:26:02;;;;;;;13.83;9.67;;;6.20;57.00;;;;;;4877893;29;20235;-68
2024/01/29 10:28:31;;;;;;;17.23;9.77;;;6.30;56.90;;;;;;4878712;29;20226;-70
2024/01/29 10:31:00;;;;;;;11.50;8.93;;;6.40;56.10;;;;;;4883071;29;20898;-69
2024/01/29 10:33:29;;;;;;;11.97;8.87;;;6.40;56.00;;;;;;4883014;29;20971;-68
2024/01/29 10:36:02;;;;;;;13.77;9.40;;;6.40;56.30;;;;;;4880173;29;20221;-69
2024/01/29 10:38:40;;;;;;;16.40;9.47;;;6.50;56.50;;;;;;4885783;29;20326;-68
2024/01/29 10:41:10;;;;;;;15.43;9.50;;;6.40;56.80;;;;;;4898702;29;20232;-69
2024/01/29 10:43:41;;;;;;;13.47;9.30;;;6.40;56.90;;;;;;4883029;29;20219;-69
2024/01/29 10:46:11;;;;;;;14.50;8.97;;;6.60;56.40;;;;;;4887739;29;20226;-69
2024/01/29 10:48:41;;;;;;;12.13;9.00;;;6.60;55.90;;;;;;4886073;29;20310;-69
2024/01/29 10:51:13;;;;;;;13.20;8.50;;;6.70;56.40;;;;;;4884820;29;20712;-70
2024/01/29 10:53:42;;;;;;;13.67;9.10;;;6.70;56.10;;;;;;4887034;29;20225;-68
2024/01/29 10:56:11;;;;;;;12.40;8.47;;;6.70;55.60;;;;;;4882149;29;20237;-68
2024/01/29 10:58:40;;;;;;;11.20;8.23;;;6.70;55.80;;;;;;4887394;29;20343;-68
2024/01/29 11:01:11;;;;;;;11.60;8.30;;;6.70;56.10;;;;;;4887065;29;20315;-69
2024/01/29 11:03:41;;;;;;;13.27;8.57;;;6.70;56.50;;;;;;4870328;29;20388;-69
2024/01/29 11:06:21;;;;;;;14.90;8.30;;;6.80;56.80;;;;;;4887059;29;20624;-69
2024/01/29 11:08:53;;;;;;;11.73;8.00;;;6.80;55.80;;;;;;4885985;29;20257;-68
2024/01/29 11:11:25;;;;;;;13.27;8.20;;;6.80;56.00;;;;;;4880692;29;21817;-68
2024/01/29 11:13:53;;;;;;;12.13;8.13;;;6.90;55.70;;;;;;4880583;29;20254;-69
2024/01/29 11:16:22;;;;;;;10.60;7.73;;;6.90;56.00;;;;;;4884969;29;20795;-69
2024/01/29 11:18:51;;;;;;;12.30;7.87;;;6.90;56.10;;;;;;4883173;29;20317;-69
2024/01/29 11:21:26;;;;;;;12.73;8.13;;;6.90;56.30;;;;;;4872657;29;20234;-69
2024/01/29 11:23:57;;;;;;;10.20;7.73;;;6.90;57.30;;;;;;4870203;29;20226;-69
2024/01/29 11:26:30;;;;;;;13.10;8.23;;;6.90;56.60;;;;;;4887728;29;20236;-69
2024/01/29 11:29:04;;;;;;;12.07;8.37;;;6.90;56.50;;;;;;4886343;29;20254;-71
2024/01/29 11:31:42;;;;;;;13.53;8.20;;;7.00;56.40;;;;;;4884761;29;20230;-68
2024/01/29 11:34:12;;;;;;;12.13;8.33;;;7.00;56.10;;;;;;4880590;29;20317;-70
2024/01/29 11:36:42;;;;;;;11.37;7.83;;;7.00;56.00;;;;;;4879585;29;20894;-68
2024/01/29 11:39:17;;;;;;;12.37;8.07;;;7.00;56.30;;;;;;4872141;29;20256;-68
2024/01/29 11:41:49;;;;;;;11.07;7.73;;;7.00;56.40;;;;;;4895727;29;20261;-70
2024/01/29 11:44:22;;;;;;;12.20;8.13;;;7.10;56.00;;;;;;4880731;29;20229;-69
2024/01/29 11:46:51;;;;;;;13.47;8.27;;;7.20;55.80;;;;;;4885939;29;20764;-70
2024/01/29 11:49:29;;;;;;;11.47;8.27;;;7.20;56.30;;;;;;4883424;29;20685;-70
2024/01/29 11:52:01;;;;;;;12.63;7.90;;;7.30;56.00;;;;;;4867248;29;21114;-69
2024/01/29 11:54:30;;;;;;;14.60;8.33;;;7.30;67.90;;;;;;4871076;29;20273;-68
2024/01/29 11:56:59;;;;;;;13.30;7.97;;;7.40;55.70;;;;;;4881233;29;20254;-68
2024/01/29 11:59:27;;;;;;;12.33;8.00;;;7.50;56.60;;;;;;4887249;29;20221;-68
2024/01/29 12:01:56;;;;;;;10.50;7.37;;;7.50;55.40;;;;;;4882257;29;20240;-69
2024/01/29 12:04:25;;;;;;;13.53;7.57;;;7.40;56.40;;;;;;4883588;29;20237;-69
2024/01/29 12:06:54;;;;;;;13.73;8.57;;;7.30;56.60;;;;;;4885635;29;20229;-69
2024/01/29 12:09:28;;;;;;;11.67;7.23;;;7.40;57.00;;;;;;4868315;29;20944;-68
2024/01/29 12:11:56;;;;;;;9.63;7.03;;;7.30;56.70;;;;;;4881609;29;20294;-68
2024/01/29 12:14:25;;;;;;;9.23;6.93;;;7.40;56.90;;;;;;4882987;29;20769;-68
2024/01/29 12:16:54;;;;;;;10.33;7.17;;;7.40;57.40;;;;;;4873233;29;20351;-69
2024/01/29 12:19:23;;;;;;;13.30;7.80;;;7.40;58.10;;;;;;4881678;29;20385;-68
2024/01/29 12:21:52;;;;;;;11.63;6.93;;;7.40;58.20;;;;;;4861445;29;20253;-69
2024/01/29 12:24:21;;;;;;;10.03;7.60;;;7.40;57.90;;;;;;4877604;29;20294;-68
2024/01/29 12:26:52;;;;;;;20.73;7.80;;;7.40;57.70;;;;;;4881212;29;20226;-70
2024/01/29 12:29:21;;;;;;;10.70;7.40;;;7.50;57.80;;;;;;4881340;29;20321;-69
2024/01/29 12:31:50;;;;;;;11.40;7.32;;;7.50;57.80;;;;;;4886341;29;20226;-69
2024/01/29 12:34:20;;;;;;;10.43;7.07;;;7.50;70.30;;;;;;4882426;29;20286;-69
2024/01/29 12:36:52;;;;;;;11.03;6.70;;;7.50;57.40;;;;;;4884826;29;20235;-68
2024/01/29 12:39:21;;;;;;;10.10;7.15;;;7.50;58.30;;;;;;4871829;29;20241;-69
2024/01/29 12:41:51;;;;;;;14.90;7.77;;;7.60;57.80;;;;;;4881527;29;20234;-69
2024/01/29 12:44:19;;;;;;;12.10;7.37;;;7.60;58.40;;;;;;4867481;29;20239;-68
2024/01/29 12:46:56;;;;;;;11.23;7.68;;;7.60;59.30;;;;;;4873479;29;20436;-69
2024/01/29 12:49:25;;;;;;;9.95;7.35;;;7.70;57.80;;;;;;4860501;29;20229;-69
2024/01/29 12:51:55;;;;;;;12.67;7.30;;;7.70;57.90;;;;;;4880869;29;20219;-69
2024/01/29 12:54:24;;;;;;;10.40;7.13;;;7.70;57.80;;;;;;4867313;29;20241;-68
2024/01/29 12:56:55;;;;;;;13.07;7.30;;;7.70;58.00;;;;;;4865635;29;20226;-73